createdAt,value
2019-05-19T00:00:33.342Z,100269.17
2019-05-19T00:03:01.836Z,100270.06
2019-05-19T00:05:30.302Z,100267.95
2019-05-19T00:07:58.762Z,100270.08
2019-05-19T00:10:27.230Z,100271.77
2019-05-19T00:12:55.672Z,100275.69
2019-05-19T00:15:24.143Z,100280.89
2019-05-19T00:17:52.582Z,100283.34
2019-05-19T00:20:21.056Z,100281.92
2019-05-19T00:22:49.505Z,100286.20
2019-05-19T00:25:17.964Z,100288.38
2019-05-19T00:27:46.425Z,100285.80
2019-05-19T00:30:15.025Z,100288.05
2019-05-19T00:32:43.662Z,100288.88
2019-05-19T00:35:12.160Z,100279.84
2019-05-19T00:37:40.628Z,100282.84
2019-05-19T00:40:09.529Z,100280.75
2019-05-19T00:42:38.050Z,100282.39
2019-05-19T00:45:08.374Z,100280.67
2019-05-19T00:47:36.813Z,100279.81
2019-05-19T00:50:08.501Z,100284.48
2019-05-19T00:52:36.942Z,100283.62
2019-05-19T00:55:06.693Z,100287.92
2019-05-19T00:57:36.499Z,100280.13
2019-05-19T01:00:09.524Z,100274.52
2019-05-19T01:02:38.047Z,100276.28
2019-05-19T01:05:08.016Z,100275.88
2019-05-19T01:07:36.842Z,100276.13
2019-05-19T01:10:07.590Z,100277.33
2019-05-19T01:12:36.053Z,100271.04
2019-05-19T01:15:06.566Z,100275.30
2019-05-19T01:17:35.051Z,100267.95
2019-05-19T01:20:04.851Z,100265.48
2019-05-19T01:22:33.312Z,100269.06
2019-05-19T01:25:01.835Z,100270.14
2019-05-19T01:27:30.237Z,100272.19
2019-05-19T01:29:58.667Z,100271.87
2019-05-19T01:32:27.139Z,100265.98
2019-05-19T01:34:55.598Z,100262.45
2019-05-19T01:37:24.061Z,100259.84
2019-05-19T01:39:52.547Z,100263.56
2019-05-19T01:42:20.987Z,100263.95
2019-05-19T01:44:49.467Z,100269.62
2019-05-19T01:47:18.009Z,100273.17
2019-05-19T01:49:46.455Z,100270.45
2019-05-19T01:52:14.905Z,100262.58
2019-05-19T01:54:43.371Z,100266.22
2019-05-19T01:57:11.846Z,100265.11
2019-05-19T01:59:40.305Z,100262.85
2019-05-19T02:02:08.781Z,100261.79
2019-05-19T02:04:37.221Z,100260.12
2019-05-19T02:07:05.698Z,100255.89
2019-05-19T02:09:34.175Z,100256.48
2019-05-19T02:12:02.623Z,100249.27
2019-05-19T02:14:31.128Z,100252.17
2019-05-19T02:16:59.573Z,100254.80
2019-05-19T02:19:28.023Z,100255.18
2019-05-19T02:21:56.498Z,100252.43
2019-05-19T02:24:24.955Z,100252.69
2019-05-19T02:26:53.405Z,100249.23
2019-05-19T02:29:21.884Z,100248.92
2019-05-19T02:31:50.355Z,100243.86
2019-05-19T02:34:18.809Z,100246.77
2019-05-19T02:36:47.281Z,100250.69
2019-05-19T02:39:15.747Z,100253.27
2019-05-19T02:41:47.241Z,100249.52
2019-05-19T02:44:17.549Z,100252.17
2019-05-19T02:46:46.645Z,100251.39
2019-05-19T02:49:17.256Z,100247.01
2019-05-19T02:51:49.602Z,100243.49
2019-05-19T02:54:19.942Z,100245.29
2019-05-19T02:56:49.834Z,100243.44
2019-05-19T02:59:20.545Z,100240.39
2019-05-19T03:02:02.639Z,100248.34
2019-05-19T03:04:31.207Z,100243.50
2019-05-19T03:06:59.707Z,100239.19
2019-05-19T03:09:29.311Z,100239.19
2019-05-19T03:11:57.795Z,100243.93
2019-05-19T03:14:26.282Z,100240.55
2019-05-19T03:16:54.700Z,100244.20
2019-05-19T03:19:23.199Z,100248.70
2019-05-19T03:21:51.686Z,100251.88
2019-05-19T03:24:20.142Z,100250.25
2019-05-19T03:26:49.323Z,100254.95
2019-05-19T03:29:19.421Z,100254.17
2019-05-19T03:31:52.243Z,100254.09
2019-05-19T03:34:20.668Z,100259.61
2019-05-19T03:36:49.106Z,100256.38
2019-05-19T03:39:17.589Z,100258.55
2019-05-19T03:41:46.105Z,100257.27
2019-05-19T03:44:14.597Z,100258.91
2019-05-19T03:46:43.775Z,100260.86
2019-05-19T03:49:12.245Z,100265.47
2019-05-19T03:51:40.681Z,100264.95
2019-05-19T03:54:09.187Z,100258.50
2019-05-19T03:56:37.598Z,100262.41
2019-05-19T03:59:06.048Z,100258.70
2019-05-19T04:01:34.520Z,100259.19
2019-05-19T04:04:02.994Z,100259.61
2019-05-19T04:06:31.431Z,100266.20
2019-05-19T04:08:59.911Z,100261.80
2019-05-19T04:11:28.352Z,100267.56
2019-05-19T04:13:56.811Z,100267.44
2019-05-19T04:16:25.290Z,100271.38
2019-05-19T04:18:53.799Z,100267.48
2019-05-19T04:21:22.255Z,100273.84
2019-05-19T04:23:50.712Z,100274.00
2019-05-19T04:26:19.150Z,100277.37
2019-05-19T04:28:47.647Z,100272.74
2019-05-19T04:31:16.084Z,100274.55
2019-05-19T04:33:44.515Z,100274.16
2019-05-19T04:36:12.993Z,100269.53
2019-05-19T04:38:41.427Z,100271.52
2019-05-19T04:41:09.885Z,100268.23
2019-05-19T04:43:38.365Z,100273.55
2019-05-19T04:46:06.820Z,100270.14
2019-05-19T04:48:35.292Z,100264.06
2019-05-19T04:51:03.817Z,100267.48
2019-05-19T04:53:32.231Z,100267.43
2019-05-19T04:56:00.693Z,100259.62
2019-05-19T04:58:29.177Z,100261.63
2019-05-19T05:00:57.603Z,100266.86
2019-05-19T05:03:26.078Z,100264.73
2019-05-19T05:05:54.515Z,100256.07
2019-05-19T05:08:29.896Z,100251.77
2019-05-19T05:10:53.142Z,100256.20
2019-05-19T05:13:21.610Z,100254.07
2019-05-19T05:15:50.066Z,100255.80
2019-05-19T05:18:18.541Z,100262.03
2019-05-19T05:20:46.966Z,100259.05
2019-05-19T05:23:15.419Z,100256.42
2019-05-19T05:25:43.872Z,100261.17
2019-05-19T05:28:12.334Z,100251.97
2019-05-19T05:30:40.817Z,100258.52
2019-05-19T05:33:09.258Z,100265.09
2019-05-19T05:35:37.689Z,100258.58
2019-05-19T05:38:06.160Z,100264.28
2019-05-19T05:40:34.617Z,100266.39
2019-05-19T05:43:03.081Z,100269.48
2019-05-19T05:45:31.577Z,100264.23
2019-05-19T05:48:00.002Z,100262.97
2019-05-19T05:50:28.475Z,100262.55
2019-05-19T05:52:56.916Z,100258.18
2019-05-19T05:55:25.357Z,100259.91
2019-05-19T05:57:53.818Z,100256.84
2019-05-19T06:00:23.872Z,100259.88
2019-05-19T06:02:52.332Z,100259.88
2019-05-19T06:05:20.784Z,100251.48
2019-05-19T06:07:49.237Z,100258.05
2019-05-19T06:10:18.514Z,100259.87
2019-05-19T06:12:46.991Z,100259.38
2019-05-19T06:15:15.433Z,100258.53
2019-05-19T06:17:43.895Z,100257.60
2019-05-19T06:20:12.610Z,100258.94
2019-05-19T06:22:55.052Z,100254.87
2019-05-19T06:25:11.406Z,100252.89
2019-05-19T06:27:39.880Z,100257.66
2019-05-19T06:30:09.055Z,100257.79
2019-05-19T06:32:45.330Z,100255.19
2019-05-19T06:35:14.221Z,100258.71
2019-05-19T06:37:42.686Z,100255.94
2019-05-19T06:40:12.400Z,100254.71
2019-05-19T06:42:41.795Z,100254.92
2019-05-19T06:45:10.790Z,100250.37
2019-05-19T06:47:39.264Z,100251.41
2019-05-19T06:50:08.749Z,100247.67
2019-05-19T06:52:37.218Z,100242.49
2019-05-19T06:55:06.919Z,100252.27
2019-05-19T06:57:35.367Z,100251.13
2019-05-19T07:00:05.866Z,100247.72
2019-05-19T07:02:34.382Z,100245.40
2019-05-19T07:05:03.063Z,100242.59
2019-05-19T07:07:31.466Z,100240.41
2019-05-19T07:09:59.983Z,100231.06
2019-05-19T07:12:28.425Z,100236.10
2019-05-19T07:14:56.904Z,100234.56
2019-05-19T07:17:25.364Z,100234.92
2019-05-19T07:19:53.843Z,100232.16
2019-05-19T07:22:22.310Z,100227.35
2019-05-19T07:24:50.761Z,100223.64
2019-05-19T07:27:19.309Z,100228.43
2019-05-19T07:29:49.263Z,100228.31
2019-05-19T07:32:17.733Z,100230.02
2019-05-19T07:34:46.214Z,100222.11
2019-05-19T07:37:14.658Z,100226.94
2019-05-19T07:39:43.142Z,100220.36
2019-05-19T07:42:11.685Z,100221.58
2019-05-19T07:44:40.137Z,100223.89
2019-05-19T07:47:08.586Z,100220.87
2019-05-19T07:49:37.065Z,100218.16
2019-05-19T07:52:05.540Z,100217.77
2019-05-19T07:54:35.667Z,100216.48
2019-05-19T07:57:04.168Z,100212.41
2019-05-19T07:59:32.644Z,100208.44
2019-05-19T08:02:01.117Z,100214.90
2019-05-19T08:04:29.537Z,100209.42
2019-05-19T08:06:58.009Z,100207.35
2019-05-19T08:09:26.491Z,100200.97
2019-05-19T08:11:54.983Z,100199.66
2019-05-19T08:14:23.521Z,100196.31
2019-05-19T08:16:51.989Z,100198.25
2019-05-19T08:19:20.442Z,100192.45
2019-05-19T08:21:48.979Z,100191.74
2019-05-19T08:24:17.436Z,100188.17
2019-05-19T08:26:45.877Z,100190.73
2019-05-19T08:29:14.353Z,100187.13
2019-05-19T08:31:42.796Z,100186.49
2019-05-19T08:34:11.397Z,100188.44
2019-05-19T08:36:39.839Z,100186.16
2019-05-19T08:39:08.303Z,100182.77
2019-05-19T08:41:36.740Z,100177.38
2019-05-19T08:44:05.460Z,100187.91
2019-05-19T08:46:33.954Z,100196.56
2019-05-19T08:49:02.393Z,100188.92
2019-05-19T08:51:30.835Z,100188.39
2019-05-19T08:54:12.545Z,100190.52
2019-05-19T08:56:29.501Z,100188.02
2019-05-19T08:58:57.957Z,100191.59
2019-05-19T09:01:26.416Z,100190.64
2019-05-19T09:03:54.853Z,100192.59
2019-05-19T09:06:23.371Z,100195.70
2019-05-19T09:08:51.878Z,100191.36
2019-05-19T09:11:20.362Z,100188.80
2019-05-19T09:13:48.818Z,100186.49
2019-05-19T09:16:17.305Z,100182.69
2019-05-19T09:18:45.728Z,100182.38
2019-05-19T09:21:14.178Z,100179.58
2019-05-19T09:23:42.639Z,100179.59
2019-05-19T09:26:11.150Z,100178.45
2019-05-19T09:28:39.609Z,100171.20
2019-05-19T09:31:08.081Z,100165.39
2019-05-19T09:33:36.516Z,100166.73
2019-05-19T09:36:04.985Z,100166.95
2019-05-19T09:38:33.634Z,100161.86
2019-05-19T09:41:02.214Z,100159.00
2019-05-19T09:43:30.675Z,100151.67
2019-05-19T09:45:59.483Z,100154.47
2019-05-19T09:48:27.975Z,100146.82
2019-05-19T09:50:56.455Z,100153.84
2019-05-19T09:53:24.875Z,100154.75
2019-05-19T09:55:53.318Z,100149.63
2019-05-19T09:58:21.807Z,100147.99
2019-05-19T10:00:50.271Z,100140.14
2019-05-19T10:03:19.740Z,100136.45
2019-05-19T10:05:48.373Z,100135.52
2019-05-19T10:08:18.522Z,100142.09
2019-05-19T10:11:11.543Z,100137.11
2019-05-19T10:13:40.025Z,100132.16
2019-05-19T10:16:08.452Z,100135.26
2019-05-19T10:18:36.906Z,100132.08
2019-05-19T10:21:05.368Z,100128.97
2019-05-19T10:23:33.845Z,100127.41
2019-05-19T10:26:02.295Z,100126.09
2019-05-19T10:28:30.724Z,100128.20
2019-05-19T10:30:59.186Z,100125.15
2019-05-19T10:33:27.648Z,100118.20
2019-05-19T10:35:56.095Z,100116.60
2019-05-19T10:38:24.558Z,100113.27
2019-05-19T10:40:53.038Z,100115.28
2019-05-19T10:43:21.500Z,100118.44
2019-05-19T10:45:51.584Z,100114.31
2019-05-19T10:48:20.023Z,100116.61
2019-05-19T10:50:48.520Z,100117.71
2019-05-19T10:53:16.952Z,100107.45
2019-05-19T10:55:46.278Z,100106.11
2019-05-19T10:58:14.733Z,100106.23
2019-05-19T11:00:43.210Z,100105.91
2019-05-19T11:03:11.651Z,100107.02
2019-05-19T11:05:40.120Z,100113.19
2019-05-19T11:08:08.588Z,100107.55
2019-05-19T11:10:37.027Z,100100.66
2019-05-19T11:13:05.465Z,100102.05
2019-05-19T11:15:33.942Z,100103.34
2019-05-19T11:18:02.409Z,100092.91
2019-05-19T11:20:30.862Z,100087.23
2019-05-19T11:22:59.330Z,100082.26
2019-05-19T11:25:33.805Z,100087.55
2019-05-19T11:27:57.957Z,100090.72
2019-05-19T11:30:26.439Z,100088.34
2019-05-19T11:32:54.931Z,100091.34
2019-05-19T11:35:23.401Z,100075.66
2019-05-19T11:37:51.840Z,100073.39
2019-05-19T11:40:20.316Z,100077.98
2019-05-19T11:42:48.746Z,100077.17
2019-05-19T11:45:17.483Z,100070.73
2019-05-19T11:47:45.916Z,100069.52
2019-05-19T11:50:14.515Z,100075.47
2019-05-19T11:52:43.010Z,100074.52
2019-05-19T11:55:11.688Z,100069.33
2019-05-19T11:57:40.147Z,100061.10
2019-05-19T12:00:09.377Z,100059.89
2019-05-19T12:02:37.843Z,100064.91
2019-05-19T12:05:06.463Z,100052.59
2019-05-19T12:07:34.906Z,100055.00
2019-05-19T12:10:03.507Z,100052.67
2019-05-19T12:12:31.988Z,100057.89
2019-05-19T12:15:00.455Z,100064.23
2019-05-19T12:17:28.926Z,100054.02
2019-05-19T12:19:57.362Z,100051.55
2019-05-19T12:22:25.836Z,100048.75
2019-05-19T12:24:54.267Z,100041.95
2019-05-19T12:27:22.730Z,100044.77
2019-05-19T12:29:52.496Z,100051.11
2019-05-19T12:32:20.982Z,100047.89
2019-05-19T12:34:49.441Z,100045.15
2019-05-19T12:37:17.909Z,100043.54
2019-05-19T12:39:46.358Z,100052.31
2019-05-19T12:42:14.815Z,100053.30
2019-05-19T12:44:43.247Z,100048.13
2019-05-19T12:47:11.696Z,100048.08
2019-05-19T12:49:40.164Z,100038.73
2019-05-19T12:52:08.593Z,100038.91
2019-05-19T12:54:37.090Z,100037.13
2019-05-19T12:57:05.706Z,100040.66
2019-05-19T12:59:34.165Z,100038.30
2019-05-19T13:02:02.604Z,100032.46
2019-05-19T13:04:31.037Z,100032.46
2019-05-19T13:06:59.501Z,100035.67
2019-05-19T13:09:28.008Z,100036.33
2019-05-19T13:11:56.493Z,100025.69
2019-05-19T13:14:24.935Z,100018.31
2019-05-19T13:16:53.402Z,100013.21
2019-05-19T13:19:21.879Z,100016.41
2019-05-19T13:21:50.334Z,100022.89
2019-05-19T13:24:18.795Z,100021.61
2019-05-19T13:26:55.960Z,100018.66
2019-05-19T13:29:17.436Z,100015.39
2019-05-19T13:31:46.655Z,100018.98
2019-05-19T13:34:15.268Z,100017.47
2019-05-19T13:36:43.721Z,100018.16
2019-05-19T13:39:12.157Z,100014.69
2019-05-19T13:41:40.623Z,100009.08
2019-05-19T13:44:09.097Z,100009.00
2019-05-19T13:46:37.535Z,100011.54
2019-05-19T13:49:05.979Z,100011.66
2019-05-19T13:51:34.456Z,100012.50
2019-05-19T13:54:02.919Z,100015.45
2019-05-19T13:56:33.052Z,100022.16
2019-05-19T13:59:01.555Z,100026.55
2019-05-19T14:01:30.009Z,100018.89
2019-05-19T14:03:58.442Z,100032.59
2019-05-19T14:06:27.066Z,100023.05
2019-05-19T14:08:55.526Z,100027.39
2019-05-19T14:11:23.977Z,100020.22
2019-05-19T14:13:52.446Z,100020.59
2019-05-19T14:16:20.871Z,100013.31
2019-05-19T14:18:49.322Z,100005.81
2019-05-19T14:21:17.806Z,100006.56
2019-05-19T14:23:46.276Z,100009.83
2019-05-19T14:26:14.757Z,100008.07
2019-05-19T14:28:43.198Z,100011.44
2019-05-19T14:31:11.653Z,100019.19
2019-05-19T14:33:40.122Z,100022.41
2019-05-19T14:36:08.570Z,100023.77
2019-05-19T14:38:38.668Z,100018.80
2019-05-19T14:41:07.159Z,100027.57
2019-05-19T14:43:35.630Z,100029.42
2019-05-19T14:46:04.064Z,100028.08
2019-05-19T14:48:32.524Z,100022.19
2019-05-19T14:51:01.008Z,100018.84
2019-05-19T14:53:29.483Z,100021.36
2019-05-19T14:55:57.935Z,100021.85
2019-05-19T14:58:26.385Z,100036.56
2019-05-19T15:00:54.828Z,100035.56
2019-05-19T15:03:23.273Z,100028.31
2019-05-19T15:05:52.133Z,100022.76
2019-05-19T15:08:20.577Z,100040.53
2019-05-19T15:10:49.012Z,100044.13
2019-05-19T15:13:17.477Z,100039.19
2019-05-19T15:15:45.917Z,100036.59
2019-05-19T15:18:14.400Z,100023.11
2019-05-19T15:20:42.859Z,100018.39
2019-05-19T15:23:11.314Z,100011.28
2019-05-19T15:25:39.845Z,100003.28
2019-05-19T15:28:08.500Z,100005.00
2019-05-19T15:30:36.934Z,99996.61
2019-05-19T15:33:05.360Z,100000.48
2019-05-19T15:35:33.846Z,99994.59
2019-05-19T15:38:02.333Z,99993.73
2019-05-19T15:40:30.797Z,99996.59
2019-05-19T15:42:59.238Z,100000.28
2019-05-19T15:45:27.711Z,99996.16
2019-05-19T15:47:56.242Z,99999.30
2019-05-19T15:50:24.687Z,99996.71
2019-05-19T15:52:53.148Z,99992.30
2019-05-19T15:55:21.601Z,99989.59
2019-05-19T15:57:50.070Z,99990.38
2019-05-19T16:00:20.201Z,99982.06
2019-05-19T16:02:48.665Z,99983.53
2019-05-19T16:05:17.124Z,99983.39
2019-05-19T16:07:45.592Z,99982.61
2019-05-19T16:10:14.794Z,99972.56
2019-05-19T16:12:43.243Z,99971.23
2019-05-19T16:15:12.526Z,99975.09
2019-05-19T16:17:41.020Z,99970.57
2019-05-19T16:20:09.591Z,99967.31
2019-05-19T16:22:38.027Z,99966.11
2019-05-19T16:25:07.823Z,99966.20
2019-05-19T16:27:36.322Z,99964.25
2019-05-19T16:30:06.696Z,99966.00
2019-05-19T16:32:35.144Z,99966.11
2019-05-19T16:35:04.198Z,99967.09
2019-05-19T16:37:32.822Z,99964.60
2019-05-19T16:40:01.331Z,99960.27
2019-05-19T16:42:29.807Z,99961.48
2019-05-19T16:44:58.266Z,99961.34
2019-05-19T16:47:26.730Z,99964.06
2019-05-19T16:49:55.202Z,99962.27
2019-05-19T16:52:23.646Z,99961.84
2019-05-19T16:55:10.060Z,99957.89
2019-05-19T16:57:38.488Z,99959.78
2019-05-19T17:00:07.322Z,99964.75
2019-05-19T17:02:35.731Z,99958.52
2019-05-19T17:05:05.763Z,99962.36
2019-05-19T17:07:34.220Z,99960.68
2019-05-19T17:10:02.740Z,99957.72
2019-05-19T17:12:31.249Z,99963.34
2019-05-19T17:14:59.689Z,99963.11
2019-05-19T17:17:28.153Z,99966.34
2019-05-19T17:19:56.648Z,99962.85
2019-05-19T17:22:25.130Z,99964.77
2019-05-19T17:24:53.587Z,99958.64
2019-05-19T17:27:22.011Z,99954.08
2019-05-19T17:29:50.507Z,99957.47
2019-05-19T17:32:18.943Z,99959.30
2019-05-19T17:34:47.423Z,99958.65
2019-05-19T17:37:15.927Z,99953.14
2019-05-19T17:39:44.421Z,99958.73
2019-05-19T17:42:13.849Z,99955.75
2019-05-19T17:44:42.608Z,99956.73
2019-05-19T17:47:11.059Z,99960.47
2019-05-19T17:49:39.525Z,99951.91
2019-05-19T17:52:07.999Z,99960.48
2019-05-19T17:54:36.450Z,99952.43
2019-05-19T17:57:04.985Z,99947.34
2019-05-19T17:59:34.149Z,99955.81
2019-05-19T18:02:02.609Z,99951.84
2019-05-19T18:04:31.093Z,99952.12
2019-05-19T18:06:59.575Z,99944.73
2019-05-19T18:09:28.016Z,99957.47
2019-05-19T18:11:56.478Z,99956.37
2019-05-19T18:14:24.967Z,99959.30
2019-05-19T18:16:53.447Z,99947.59
2019-05-19T18:19:21.892Z,99960.22
2019-05-19T18:21:50.329Z,99968.73
2019-05-19T18:24:18.828Z,99974.00
2019-05-19T18:26:47.304Z,99977.48
2019-05-19T18:29:15.789Z,99970.33
2019-05-19T18:31:44.266Z,99963.40
2019-05-19T18:34:12.740Z,99968.02
2019-05-19T18:36:41.191Z,99975.45
2019-05-19T18:39:09.645Z,99978.09
2019-05-19T18:41:38.108Z,99984.68
2019-05-19T18:44:06.559Z,99983.30
2019-05-19T18:46:34.998Z,99989.42
2019-05-19T18:49:03.483Z,99979.33
2019-05-19T18:51:31.927Z,99986.43
2019-05-19T18:54:00.387Z,99984.27
2019-05-19T18:56:28.835Z,99980.94
2019-05-19T18:58:57.355Z,99983.34
2019-05-19T19:01:25.785Z,99986.74
2019-05-19T19:03:55.517Z,99997.66
2019-05-19T19:06:24.322Z,99992.02
2019-05-19T19:08:52.801Z,100000.27
2019-05-19T19:11:21.284Z,100004.13
2019-05-19T19:13:49.752Z,100008.67
2019-05-19T19:16:18.192Z,100006.31
2019-05-19T19:18:46.649Z,100011.22
2019-05-19T19:21:15.131Z,100010.15
2019-05-19T19:23:43.585Z,100016.95
2019-05-19T19:26:12.087Z,100019.56
2019-05-19T19:28:40.563Z,100021.69
2019-05-19T19:31:08.998Z,100014.97
2019-05-19T19:33:37.479Z,100006.94
2019-05-19T19:36:05.970Z,100012.59
2019-05-19T19:38:35.287Z,100006.50
2019-05-19T19:41:03.755Z,99994.39
2019-05-19T19:43:32.198Z,99989.05
2019-05-19T19:46:00.710Z,99994.78
2019-05-19T19:48:29.108Z,99994.33
2019-05-19T19:50:57.557Z,99988.73
2019-05-19T19:53:26.005Z,99990.91
2019-05-19T19:55:54.499Z,99988.00
2019-05-19T19:58:23.109Z,99987.64
2019-05-19T20:00:51.646Z,99982.36
2019-05-19T20:03:20.157Z,99979.72
2019-05-19T20:05:50.313Z,99983.09
2019-05-19T20:08:18.764Z,99983.25
2019-05-19T20:10:47.259Z,99985.66
2019-05-19T20:13:15.697Z,99987.31
2019-05-19T20:15:44.151Z,99989.77
2019-05-19T20:18:12.591Z,99979.30
2019-05-19T20:20:41.052Z,99987.64
2019-05-19T20:23:09.478Z,99987.22
2019-05-19T20:25:37.936Z,99989.69
2019-05-19T20:28:06.421Z,99999.89
2019-05-19T20:30:36.501Z,100004.98
2019-05-19T20:33:05.106Z,100005.28
2019-05-19T20:35:33.800Z,100005.25
2019-05-19T20:38:02.271Z,100008.55
2019-05-19T20:40:30.708Z,100004.76
2019-05-19T20:42:59.190Z,100006.19
2019-05-19T20:45:27.635Z,100002.91
2019-05-19T20:47:56.081Z,99999.65
2019-05-19T20:50:24.556Z,100007.31
2019-05-19T20:52:53.003Z,99998.17
2019-05-19T20:55:21.448Z,100000.80
2019-05-19T20:57:49.923Z,99997.17
2019-05-19T21:00:18.477Z,100001.12
2019-05-19T21:02:46.922Z,99999.56
2019-05-19T21:05:15.381Z,99996.98
2019-05-19T21:07:43.862Z,99996.61
2019-05-19T21:10:12.401Z,99993.48
2019-05-19T21:12:40.842Z,99987.78
2019-05-19T21:15:10.228Z,99985.19
2019-05-19T21:17:38.691Z,99979.52
2019-05-19T21:20:08.297Z,99984.80
2019-05-19T21:22:36.809Z,99983.42
2019-05-19T21:25:07.353Z,99987.39
2019-05-19T21:27:35.773Z,99994.04
2019-05-19T21:30:05.557Z,99990.73
2019-05-19T21:32:34.028Z,99988.39
2019-05-19T21:35:02.472Z,99991.25
2019-05-19T21:37:30.964Z,99995.39
2019-05-19T21:39:59.450Z,99996.25
2019-05-19T21:42:27.894Z,99991.50
2019-05-19T21:44:56.378Z,99998.45
2019-05-19T21:47:24.851Z,99997.31
2019-05-19T21:49:53.275Z,100000.94
2019-05-19T21:52:21.749Z,99997.30
2019-05-19T21:54:50.210Z,100001.66
2019-05-19T21:57:18.704Z,100001.51
2019-05-19T21:59:47.148Z,99998.43
2019-05-19T22:02:15.589Z,99995.38
2019-05-19T22:04:44.089Z,99999.73
2019-05-19T22:07:14.204Z,99994.61
2019-05-19T22:09:42.642Z,99997.80
2019-05-19T22:12:11.118Z,99992.09
2019-05-19T22:14:39.566Z,99989.97
2019-05-19T22:17:08.063Z,99995.19
2019-05-19T22:19:36.554Z,99997.88
2019-05-19T22:22:05.024Z,100002.80
2019-05-19T22:24:33.493Z,100002.45
2019-05-19T22:27:01.964Z,99998.89
2019-05-19T22:29:30.417Z,99991.59
2019-05-19T22:31:58.861Z,99989.45
2019-05-19T22:34:27.337Z,99984.29
2019-05-19T22:36:55.798Z,99985.61
2019-05-19T22:39:24.287Z,99989.77
2019-05-19T22:41:52.742Z,99978.69
2019-05-19T22:44:21.199Z,99980.98
2019-05-19T22:46:49.765Z,99980.06
2019-05-19T22:49:18.203Z,99981.38
2019-05-19T22:51:46.660Z,99978.36
2019-05-19T22:54:15.140Z,99977.54
2019-05-19T22:56:43.622Z,99978.91
2019-05-19T22:59:19.684Z,99978.48
2019-05-19T23:01:51.397Z,99976.73
2019-05-19T23:04:12.652Z,99975.91
2019-05-19T23:06:41.118Z,99982.17
2019-05-19T23:09:09.694Z,99987.47
2019-05-19T23:11:38.128Z,99990.05
2019-05-19T23:14:06.669Z,99997.73
2019-05-19T23:16:35.341Z,99994.16
2019-05-19T23:19:03.804Z,99994.13
2019-05-19T23:21:34.482Z,99987.19
2019-05-19T23:24:02.461Z,99986.28
2019-05-19T23:26:30.924Z,99980.98
2019-05-19T23:28:59.374Z,99980.08
2019-05-19T23:31:27.906Z,99982.00
2019-05-19T23:33:59.035Z,99976.66
2019-05-19T23:36:27.520Z,99975.80
2019-05-19T23:38:55.977Z,99968.86
2019-05-19T23:41:24.495Z,99956.54
2019-05-19T23:43:52.952Z,99964.05
2019-05-19T23:46:21.386Z,99968.03
2019-05-19T23:48:49.843Z,99975.12
2019-05-19T23:51:18.591Z,99966.34
2019-05-19T23:53:47.038Z,99966.34
2019-05-19T23:56:15.490Z,99970.25
2019-05-19T23:58:43.965Z,99969.49
